Iron River, Michigan
Current Conditions -  °F | °C
As of 7:35 AM on Tuesday 21 Oct 2014 (Local Time) from KLNL Reporting Station
Overcast Overcast  
Wind Chill: 37°   Ceiling: 800
Heat Index: 37°   Visibility: 10mi
Dew Point: 34°   Wind: 3mph
Humidity: 91%   Direction: 40°NE
Pressure: 30.22"   Gusts: NA
Location:  46.09°N, 88.64°W
Report Text: KLNL 211235Z AUTO 04003KT 10SM OVC008 03/01 A3022 RMK AO2 T00260013
Loading
Personal Weather Stations






























Interactive Weather Map
Tropical Storm Tracking
New forecast layout! Learn more

10-Day Weather Forecast

Advertisements
Track Severe Weather on mobile